sensor_id;sensor_type;location;lat;lon;timestamp;pressure;altitude;pressure_sealevel;temperature;humidity
42289;BME280;30230;47.520;19.016;2023-03-15T00:01:10;97821.09;;;9.25;85.28
42289;BME280;30230;47.520;19.016;2023-03-15T00:03:14;97833.59;;;9.20;84.01
42289;BME280;30230;47.520;19.016;2023-03-15T00:05:14;97845.13;;;9.27;84.97
42289;BME280;30230;47.520;19.016;2023-03-15T00:07:14;97845.13;;;9.27;84.86
42289;BME280;30230;47.520;19.016;2023-03-15T00:09:15;97847.78;;;9.15;84.64
42289;BME280;30230;47.520;19.016;2023-03-15T00:11:15;97840.53;;;9.16;84.61
42289;BME280;30230;47.520;19.016;2023-03-15T00:13:16;97851.28;;;9.16;83.84
42289;BME280;30230;47.520;19.016;2023-03-15T00:15:17;97857.13;;;9.12;82.75
42289;BME280;30230;47.520;19.016;2023-03-15T00:17:17;97852.63;;;8.95;84.93
42289;BME280;30230;47.520;19.016;2023-03-15T00:19:18;97835.28;;;8.91;84.67
42289;BME280;30230;47.520;19.016;2023-03-15T00:21:19;97852.03;;;9.04;83.82
42289;BME280;30230;47.520;19.016;2023-03-15T00:23:19;97852.78;;;9.11;83.25
42289;BME280;30230;47.520;19.016;2023-03-15T00:25:20;97854.06;;;9.09;82.51
42289;BME280;30230;47.520;19.016;2023-03-15T00:27:20;97852.53;;;9.01;82.53
42289;BME280;30230;47.520;19.016;2023-03-15T00:29:21;97850.28;;;8.98;83.31
42289;BME280;30230;47.520;19.016;2023-03-15T00:31:23;97871.25;;;8.96;83.78
42289;BME280;30230;47.520;19.016;2023-03-15T00:33:23;97864.88;;;8.91;84.02
42289;BME280;30230;47.520;19.016;2023-03-15T00:35:24;97857.53;;;8.98;81.72
42289;BME280;30230;47.520;19.016;2023-03-15T00:37:24;97856.72;;;8.97;82.67
42289;BME280;30230;47.520;19.016;2023-03-15T00:39:29;97848.59;;;8.85;83.03
42289;BME280;30230;47.520;19.016;2023-03-15T00:41:29;97847.09;;;8.90;82.94
42289;BME280;30230;47.520;19.016;2023-03-15T00:43:31;97854.06;;;8.79;83.41
42289;BME280;30230;47.520;19.016;2023-03-15T00:45:31;97856.53;;;8.80;82.79
42289;BME280;30230;47.520;19.016;2023-03-15T00:47:32;97844.94;;;8.80;82.75
42289;BME280;30230;47.520;19.016;2023-03-15T00:49:32;97825.94;;;8.75;83.36
42289;BME280;30230;47.520;19.016;2023-03-15T00:51:33;97837.91;;;8.79;83.07
42289;BME280;30230;47.520;19.016;2023-03-15T00:53:38;97815.63;;;8.72;83.02
42289;BME280;30230;47.520;19.016;2023-03-15T00:55:39;97822.06;;;8.71;83.37
42289;BME280;30230;47.520;19.016;2023-03-15T00:57:44;97816.69;;;8.71;83.64
42289;BME280;30230;47.520;19.016;2023-03-15T00:59:45;97812.41;;;8.63;84.30
42289;BME280;30230;47.520;19.016;2023-03-15T01:01:45;97801.75;;;8.56;82.57
42289;BME280;30230;47.520;19.016;2023-03-15T01:03:46;97819.09;;;8.60;81.61
42289;BME280;30230;47.520;19.016;2023-03-15T01:05:46;97811.28;;;8.71;81.11
42289;BME280;30230;47.520;19.016;2023-03-15T01:07:47;97827.75;;;8.63;80.31
42289;BME280;30230;47.520;19.016;2023-03-15T01:09:48;97836.59;;;8.51;81.14
42289;BME280;30230;47.520;19.016;2023-03-15T01:11:48;97839.41;;;8.56;80.57
42289;BME280;30230;47.520;19.016;2023-03-15T01:13:53;97853.13;;;8.55;79.30
42289;BME280;30230;47.520;19.016;2023-03-15T01:15:54;97832.19;;;8.39;79.13
42289;BME280;30230;47.520;19.016;2023-03-15T01:17:55;97841.47;;;8.43;80.29
42289;BME280;30230;47.520;19.016;2023-03-15T01:19:57;97849.22;;;8.51;79.31
42289;BME280;30230;47.520;19.016;2023-03-15T01:21:58;97845.72;;;8.50;79.39
42289;BME280;30230;47.520;19.016;2023-03-15T01:23:58;97851.69;;;8.52;77.79
42289;BME280;30230;47.520;19.016;2023-03-15T01:26:04;97856.91;;;8.47;78.72
42289;BME280;30230;47.520;19.016;2023-03-15T01:28:05;97863.19;;;8.41;78.76
42289;BME280;30230;47.520;19.016;2023-03-15T01:30:06;97859.13;;;8.32;78.37
42289;BME280;30230;47.520;19.016;2023-03-15T01:32:06;97855.75;;;8.43;77.96
42289;BME280;30230;47.520;19.016;2023-03-15T01:34:08;97858.53;;;8.30;77.81
42289;BME280;30230;47.520;19.016;2023-03-15T01:36:10;97849.38;;;8.38;78.00
42289;BME280;30230;47.520;19.016;2023-03-15T01:38:11;97858.09;;;8.33;77.60
42289;BME280;30230;47.520;19.016;2023-03-15T01:40:12;97848.44;;;8.25;77.51
42289;BME280;30230;47.520;19.016;2023-03-15T01:42:12;97855.84;;;8.30;77.30
42289;BME280;30230;47.520;19.016;2023-03-15T01:44:14;97852.47;;;8.34;75.36
42289;BME280;30230;47.520;19.016;2023-03-15T01:46:31;97854.19;;;8.29;76.60
42289;BME280;30230;47.520;19.016;2023-03-15T01:50:39;97843.13;;;8.19;76.45
42289;BME280;30230;47.520;19.016;2023-03-15T01:52:40;97834.84;;;8.20;76.27
42289;BME280;30230;47.520;19.016;2023-03-15T01:57:38;97842.25;;;8.25;75.21
42289;BME280;30230;47.520;19.016;2023-03-15T02:00:27;97840.44;;;8.19;75.09
42289;BME280;30230;47.520;19.016;2023-03-15T02:02:21;97839.25;;;8.15;76.21
42289;BME280;30230;47.520;19.016;2023-03-15T02:04:32;97837.56;;;7.95;76.87
42289;BME280;30230;47.520;19.016;2023-03-15T02:06:34;97845.72;;;7.89;76.97
42289;BME280;30230;47.520;19.016;2023-03-15T02:08:41;97847.00;;;8.04;76.64
42289;BME280;30230;47.520;19.016;2023-03-15T02:10:47;97846.63;;;8.01;76.88
42289;BME280;30230;47.520;19.016;2023-03-15T02:12:50;97830.44;;;8.07;76.73
42289;BME280;30230;47.520;19.016;2023-03-15T02:14:52;97842.56;;;8.17;75.69
42289;BME280;30230;47.520;19.016;2023-03-15T02:16:54;97839.66;;;7.93;76.55
42289;BME280;30230;47.520;19.016;2023-03-15T02:18:54;97844.72;;;7.83;77.37
42289;BME280;30230;47.520;19.016;2023-03-15T02:21:21;97852.28;;;7.93;77.09
42289;BME280;30230;47.520;19.016;2023-03-15T02:23:19;97844.66;;;7.90;76.89
42289;BME280;30230;47.520;19.016;2023-03-15T02:25:38;97844.88;;;7.88;77.09
42289;BME280;30230;47.520;19.016;2023-03-15T02:27:44;97835.63;;;7.84;77.25
42289;BME280;30230;47.520;19.016;2023-03-15T02:29:44;97832.34;;;7.82;77.02
42289;BME280;30230;47.520;19.016;2023-03-15T02:31:44;97830.78;;;7.93;77.04
42289;BME280;30230;47.520;19.016;2023-03-15T02:33:48;97828.53;;;7.90;77.37
42289;BME280;30230;47.520;19.016;2023-03-15T02:35:49;97836.72;;;8.01;76.15
42289;BME280;30230;47.520;19.016;2023-03-15T02:37:50;97833.41;;;7.99;75.71
42289;BME280;30230;47.520;19.016;2023-03-15T02:39:50;97823.16;;;7.90;77.62
42289;BME280;30230;47.520;19.016;2023-03-15T02:41:53;97833.97;;;7.83;77.72
42289;BME280;30230;47.520;19.016;2023-03-15T02:43:58;97835.03;;;7.82;78.10
42289;BME280;30230;47.520;19.016;2023-03-15T02:46:01;97841.63;;;7.86;78.06
42289;BME280;30230;47.520;19.016;2023-03-15T02:48:04;97830.56;;;7.94;78.37
42289;BME280;30230;47.520;19.016;2023-03-15T02:50:05;97839.94;;;7.85;78.43
42289;BME280;30230;47.520;19.016;2023-03-15T02:52:07;97848.53;;;7.75;78.61
42289;BME280;30230;47.520;19.016;2023-03-15T02:54:08;97848.91;;;7.79;78.98
42289;BME280;30230;47.520;19.016;2023-03-15T02:56:08;97852.41;;;7.79;79.01
42289;BME280;30230;47.520;19.016;2023-03-15T02:58:09;97848.47;;;7.82;78.99
42289;BME280;30230;47.520;19.016;2023-03-15T03:00:10;97848.53;;;7.75;79.28
42289;BME280;30230;47.520;19.016;2023-03-15T03:02:13;97844.56;;;7.78;79.03
42289;BME280;30230;47.520;19.016;2023-03-15T03:04:14;97844.13;;;7.81;78.75
42289;BME280;30230;47.520;19.016;2023-03-15T03:06:15;97839.78;;;7.80;79.49
42289;BME280;30230;47.520;19.016;2023-03-15T03:08:18;97845.44;;;7.72;79.69
42289;BME280;30230;47.520;19.016;2023-03-15T03:10:20;97838.63;;;7.69;80.05
42289;BME280;30230;47.520;19.016;2023-03-15T03:12:21;97842.59;;;7.67;79.91
42289;BME280;30230;47.520;19.016;2023-03-15T03:14:21;97830.81;;;7.68;79.06
42289;BME280;30230;47.520;19.016;2023-03-15T03:16:25;97822.47;;;7.76;76.96
42289;BME280;30230;47.520;19.016;2023-03-15T03:18:29;97827.19;;;7.80;75.29
42289;BME280;30230;47.520;19.016;2023-03-15T03:20:34;97829.66;;;7.82;76.25
42289;BME280;30230;47.520;19.016;2023-03-15T03:22:36;97824.03;;;7.83;75.91
42289;BME280;30230;47.520;19.016;2023-03-15T03:24:36;97826.56;;;7.78;76.10
42289;BME280;30230;47.520;19.016;2023-03-15T03:26:37;97823.00;;;7.84;75.33
42289;BME280;30230;47.520;19.016;2023-03-15T03:28:37;97823.94;;;7.72;76.08
42289;BME280;30230;47.520;19.016;2023-03-15T03:30:37;97816.94;;;7.71;75.46
42289;BME280;30230;47.520;19.016;2023-03-15T03:32:39;97815.09;;;7.65;75.90
42289;BME280;30230;47.520;19.016;2023-03-15T03:34:40;97806.03;;;7.66;76.17
42289;BME280;30230;47.520;19.016;2023-03-15T03:36:43;97816.78;;;7.66;76.10
42289;BME280;30230;47.520;19.016;2023-03-15T03:38:45;97814.34;;;7.57;76.08
42289;BME280;30230;47.520;19.016;2023-03-15T03:40:46;97831.22;;;7.65;75.95
42289;BME280;30230;47.520;19.016;2023-03-15T03:42:46;97810.03;;;7.56;76.48
42289;BME280;30230;47.520;19.016;2023-03-15T03:44:46;97814.59;;;7.56;76.08
42289;BME280;30230;47.520;19.016;2023-03-15T03:46:47;97826.53;;;7.60;76.20
42289;BME280;30230;47.520;19.016;2023-03-15T03:48:47;97792.47;;;7.54;76.05
42289;BME280;30230;47.520;19.016;2023-03-15T03:50:48;97823.56;;;7.68;75.59
42289;BME280;30230;47.520;19.016;2023-03-15T03:52:48;97815.06;;;7.46;75.69
42289;BME280;30230;47.520;19.016;2023-03-15T03:54:49;97824.22;;;7.64;74.58
42289;BME280;30230;47.520;19.016;2023-03-15T03:56:50;97830.81;;;7.68;73.96
42289;BME280;30230;47.520;19.016;2023-03-15T03:58:50;97830.91;;;7.54;75.32
42289;BME280;30230;47.520;19.016;2023-03-15T04:00:51;97813.63;;;7.44;75.04
42289;BME280;30230;47.520;19.016;2023-03-15T04:02:54;97814.78;;;7.54;74.32
42289;BME280;30230;47.520;19.016;2023-03-15T04:04:55;97822.19;;;7.59;74.02
42289;BME280;30230;47.520;19.016;2023-03-15T04:06:55;97830.16;;;7.47;74.94
42289;BME280;30230;47.520;19.016;2023-03-15T04:08:56;97823.25;;;7.58;74.69
42289;BME280;30230;47.520;19.016;2023-03-15T04:10:57;97829.25;;;7.53;73.99
42289;BME280;30230;47.520;19.016;2023-03-15T04:12:57;97821.81;;;7.55;73.04
42289;BME280;30230;47.520;19.016;2023-03-15T04:14:57;97804.75;;;7.43;73.75
42289;BME280;30230;47.520;19.016;2023-03-15T04:16:58;97831.03;;;7.66;72.99
42289;BME280;30230;47.520;19.016;2023-03-15T04:18:58;97833.59;;;7.54;72.91
42289;BME280;30230;47.520;19.016;2023-03-15T04:20:59;97839.19;;;7.53;72.73
42289;BME280;30230;47.520;19.016;2023-03-15T04:23:00;97852.84;;;7.51;72.90
42289;BME280;30230;47.520;19.016;2023-03-15T04:25:00;97850.81;;;7.47;72.79
42289;BME280;30230;47.520;19.016;2023-03-15T04:27:01;97839.84;;;7.48;72.65
42289;BME280;30230;47.520;19.016;2023-03-15T04:29:02;97846.31;;;7.41;71.33
42289;BME280;30230;47.520;19.016;2023-03-15T04:31:03;97844.88;;;7.38;71.85
42289;BME280;30230;47.520;19.016;2023-03-15T04:33:04;97837.69;;;7.32;71.22
42289;BME280;30230;47.520;19.016;2023-03-15T04:35:05;97843.81;;;7.14;72.17
42289;BME280;30230;47.520;19.016;2023-03-15T04:37:05;97851.34;;;7.30;71.45
42289;BME280;30230;47.520;19.016;2023-03-15T04:39:06;97866.41;;;7.31;71.24
42289;BME280;30230;47.520;19.016;2023-03-15T04:41:06;97860.94;;;7.20;71.72
42289;BME280;30230;47.520;19.016;2023-03-15T04:43:10;97864.50;;;7.14;72.50
42289;BME280;30230;47.520;19.016;2023-03-15T04:45:10;97863.78;;;7.25;71.34
42289;BME280;30230;47.520;19.016;2023-03-15T04:47:11;97881.59;;;7.13;71.10
42289;BME280;30230;47.520;19.016;2023-03-15T04:49:11;97883.75;;;7.04;71.94
42289;BME280;30230;47.520;19.016;2023-03-15T04:51:12;97880.47;;;6.95;71.90
42289;BME280;30230;47.520;19.016;2023-03-15T04:53:12;97886.06;;;6.87;71.89
42289;BME280;30230;47.520;19.016;2023-03-15T04:55:13;97900.72;;;6.91;71.18
42289;BME280;30230;47.520;19.016;2023-03-15T04:57:13;97903.91;;;6.75;70.08
42289;BME280;30230;47.520;19.016;2023-03-15T04:59:14;97907.06;;;6.59;71.36
42289;BME280;30230;47.520;19.016;2023-03-15T05:01:14;97891.81;;;6.52;71.29
42289;BME280;30230;47.520;19.016;2023-03-15T05:03:15;97896.72;;;6.56;71.24
42289;BME280;30230;47.520;19.016;2023-03-15T05:05:15;97896.31;;;6.59;70.72
42289;BME280;30230;47.520;19.016;2023-03-15T05:07:16;97897.16;;;6.46;71.76
42289;BME280;30230;47.520;19.016;2023-03-15T05:09:16;97898.38;;;6.63;70.75
42289;BME280;30230;47.520;19.016;2023-03-15T05:11:18;97895.34;;;6.46;71.58
42289;BME280;30230;47.520;19.016;2023-03-15T05:13:18;97900.91;;;6.45;71.32
42289;BME280;30230;47.520;19.016;2023-03-15T05:15:20;97900.72;;;6.46;70.67
42289;BME280;30230;47.520;19.016;2023-03-15T05:17:20;97909.19;;;6.37;71.86
42289;BME280;30230;47.520;19.016;2023-03-15T05:19:21;97893.47;;;6.40;71.84
42289;BME280;30230;47.520;19.016;2023-03-15T05:21:22;97904.25;;;6.14;73.19
42289;BME280;30230;47.520;19.016;2023-03-15T05:23:23;97908.78;;;6.20;72.92
42289;BME280;30230;47.520;19.016;2023-03-15T05:25:23;97904.06;;;6.22;73.21
42289;BME280;30230;47.520;19.016;2023-03-15T05:27:24;97899.94;;;5.99;73.24
42289;BME280;30230;47.520;19.016;2023-03-15T05:29:24;97891.91;;;6.06;73.67
42289;BME280;30230;47.520;19.016;2023-03-15T05:31:26;97892.75;;;6.00;74.86
42289;BME280;30230;47.520;19.016;2023-03-15T05:33:27;97887.38;;;5.93;74.55
42289;BME280;30230;47.520;19.016;2023-03-15T05:35:27;97883.47;;;5.89;74.95
42289;BME280;30230;47.520;19.016;2023-03-15T05:37:28;97886.78;;;5.91;74.59
42289;BME280;30230;47.520;19.016;2023-03-15T05:39:29;97888.38;;;5.72;75.92
42289;BME280;30230;47.520;19.016;2023-03-15T05:41:34;97871.69;;;5.77;75.01
42289;BME280;30230;47.520;19.016;2023-03-15T05:43:34;97879.53;;;5.85;75.13
42289;BME280;30230;47.520;19.016;2023-03-15T05:45:35;97877.69;;;5.72;76.29
42289;BME280;30230;47.520;19.016;2023-03-15T05:47:35;97879.13;;;5.75;75.72
42289;BME280;30230;47.520;19.016;2023-03-15T05:49:36;97873.38;;;5.65;76.00
42289;BME280;30230;47.520;19.016;2023-03-15T05:51:36;97877.06;;;5.57;77.51
42289;BME280;30230;47.520;19.016;2023-03-15T05:53:37;97876.66;;;5.67;76.54
42289;BME280;30230;47.520;19.016;2023-03-15T05:55:37;97882.44;;;5.64;76.72
42289;BME280;30230;47.520;19.016;2023-03-15T05:57:37;97882.19;;;5.52;78.23
42289;BME280;30230;47.520;19.016;2023-03-15T05:59:39;97873.56;;;5.57;78.61
42289;BME280;30230;47.520;19.016;2023-03-15T06:01:39;97895.19;;;5.55;78.50
42289;BME280;30230;47.520;19.016;2023-03-15T06:03:40;97884.47;;;5.62;77.81
42289;BME280;30230;47.520;19.016;2023-03-15T06:05:40;97874.19;;;5.59;77.75
42289;BME280;30230;47.520;19.016;2023-03-15T06:07:41;97881.59;;;5.70;77.40
42289;BME280;30230;47.520;19.016;2023-03-15T06:09:41;97884.66;;;5.47;79.00
42289;BME280;30230;47.520;19.016;2023-03-15T06:11:41;97896.41;;;5.39;80.00
42289;BME280;30230;47.520;19.016;2023-03-15T06:13:42;97900.53;;;5.42;79.89
42289;BME280;30230;47.520;19.016;2023-03-15T06:15:42;97900.75;;;5.34;79.88
42289;BME280;30230;47.520;19.016;2023-03-15T06:17:45;97903.19;;;5.35;80.14
42289;BME280;30230;47.520;19.016;2023-03-15T06:19:45;97904.25;;;5.47;79.76
42289;BME280;30230;47.520;19.016;2023-03-15T06:21:47;97910.84;;;5.38;80.80
42289;BME280;30230;47.520;19.016;2023-03-15T06:23:47;97912.47;;;5.39;80.68
42289;BME280;30230;47.520;19.016;2023-03-15T06:25:48;97910.03;;;5.38;80.38
42289;BME280;30230;47.520;19.016;2023-03-15T06:27:48;97927.13;;;5.43;80.49
42289;BME280;30230;47.520;19.016;2023-03-15T06:29:49;97928.75;;;5.38;80.66
42289;BME280;30230;47.520;19.016;2023-03-15T06:31:50;97948.34;;;5.45;80.13
42289;BME280;30230;47.520;19.016;2023-03-15T06:33:50;97938.66;;;5.44;80.12
42289;BME280;30230;47.520;19.016;2023-03-15T06:35:51;97937.19;;;5.41;80.33
42289;BME280;30230;47.520;19.016;2023-03-15T06:37:51;97946.03;;;5.35;80.50
42289;BME280;30230;47.520;19.016;2023-03-15T06:39:52;97928.50;;;5.26;80.10
42289;BME280;30230;47.520;19.016;2023-03-15T06:41:53;97937.63;;;5.38;79.43
42289;BME280;30230;47.520;19.016;2023-03-15T06:43:57;97917.84;;;5.33;80.74
42289;BME280;30230;47.520;19.016;2023-03-15T06:45:57;97934.34;;;5.43;79.25
42289;BME280;30230;47.520;19.016;2023-03-15T06:47:59;97947.69;;;5.36;80.10
42289;BME280;30230;47.520;19.016;2023-03-15T06:49:59;97939.69;;;5.43;79.45
42289;BME280;30230;47.520;19.016;2023-03-15T06:52:00;97949.53;;;5.36;80.61
42289;BME280;30230;47.520;19.016;2023-03-15T06:54:00;97961.13;;;5.43;79.28
42289;BME280;30230;47.520;19.016;2023-03-15T06:56:01;97966.03;;;5.39;80.00
42289;BME280;30230;47.520;19.016;2023-03-15T06:58:01;97962.31;;;5.40;80.00
42289;BME280;30230;47.520;19.016;2023-03-15T07:00:01;97981.28;;;5.45;79.42
42289;BME280;30230;47.520;19.016;2023-03-15T07:02:02;97973.91;;;5.61;78.50
42289;BME280;30230;47.520;19.016;2023-03-15T07:04:03;97988.34;;;5.60;78.70
42289;BME280;30230;47.520;19.016;2023-03-15T07:06:03;97982.31;;;5.44;80.11
42289;BME280;30230;47.520;19.016;2023-03-15T07:08:04;97997.34;;;5.45;79.25
42289;BME280;30230;47.520;19.016;2023-03-15T07:10:05;97994.28;;;5.55;77.79
42289;BME280;30230;47.520;19.016;2023-03-15T07:12:07;97994.31;;;5.62;78.66
42289;BME280;30230;47.520;19.016;2023-03-15T07:14:08;97996.81;;;5.70;78.65
42289;BME280;30230;47.520;19.016;2023-03-15T07:16:09;97980.91;;;5.55;78.66
42289;BME280;30230;47.520;19.016;2023-03-15T07:18:09;98005.66;;;5.64;78.09
42289;BME280;30230;47.520;19.016;2023-03-15T07:20:10;98000.69;;;5.54;78.07
42289;BME280;30230;47.520;19.016;2023-03-15T07:22:11;97991.63;;;5.48;77.03
42289;BME280;30230;47.520;19.016;2023-03-15T07:24:11;98008.06;;;5.45;78.03
42289;BME280;30230;47.520;19.016;2023-03-15T07:26:11;97989.94;;;5.41;77.91
42289;BME280;30230;47.520;19.016;2023-03-15T07:28:12;98014.69;;;5.49;78.04
42289;BME280;30230;47.520;19.016;2023-03-15T07:30:12;98009.69;;;5.33;78.24
42289;BME280;30230;47.520;19.016;2023-03-15T07:32:13;98012.63;;;5.52;77.83
42289;BME280;30230;47.520;19.016;2023-03-15T07:34:13;98011.59;;;5.53;76.74
42289;BME280;30230;47.520;19.016;2023-03-15T07:36:14;98009.72;;;5.46;76.53
42289;BME280;30230;47.520;19.016;2023-03-15T07:38:14;98016.38;;;5.64;76.51
42289;BME280;30230;47.520;19.016;2023-03-15T07:40:14;98022.13;;;5.67;76.00
42289;BME280;30230;47.520;19.016;2023-03-15T07:42:15;98022.13;;;5.61;76.47
42289;BME280;30230;47.520;19.016;2023-03-15T07:44:15;98012.16;;;5.41;76.56
42289;BME280;30230;47.520;19.016;2023-03-15T07:46:16;98015.28;;;5.52;75.82
42289;BME280;30230;47.520;19.016;2023-03-15T07:48:16;98020.88;;;5.57;76.13
42289;BME280;30230;47.520;19.016;2023-03-15T07:50:17;98017.38;;;5.63;76.11
42289;BME280;30230;47.520;19.016;2023-03-15T07:52:18;98029.13;;;5.68;74.86
42289;BME280;30230;47.520;19.016;2023-03-15T07:54:20;98029.13;;;5.62;75.37
42289;BME280;30230;47.520;19.016;2023-03-15T07:56:20;98015.56;;;5.70;75.55
42289;BME280;30230;47.520;19.016;2023-03-15T07:58:21;98019.66;;;5.66;74.74
42289;BME280;30230;47.520;19.016;2023-03-15T08:00:21;98019.28;;;5.69;74.05
42289;BME280;30230;47.520;19.016;2023-03-15T08:02:22;98015.13;;;5.73;74.22
42289;BME280;30230;47.520;19.016;2023-03-15T08:04:22;98037.34;;;5.54;75.35
42289;BME280;30230;47.520;19.016;2023-03-15T08:06:23;98020.91;;;5.70;73.19
42289;BME280;30230;47.520;19.016;2023-03-15T08:08:23;98031.81;;;5.62;73.33
42289;BME280;30230;47.520;19.016;2023-03-15T08:10:24;98035.97;;;5.78;72.48
42289;BME280;30230;47.520;19.016;2023-03-15T08:12:24;98028.31;;;5.61;72.69
42289;BME280;30230;47.520;19.016;2023-03-15T08:14:25;98042.13;;;5.71;72.72
42289;BME280;30230;47.520;19.016;2023-03-15T08:16:25;98040.06;;;5.73;71.76
42289;BME280;30230;47.520;19.016;2023-03-15T08:18:26;98039.06;;;5.81;71.71
42289;BME280;30230;47.520;19.016;2023-03-15T08:20:30;98037.63;;;5.85;70.03
42289;BME280;30230;47.520;19.016;2023-03-15T08:22:32;98038.19;;;5.67;72.01
42289;BME280;30230;47.520;19.016;2023-03-15T08:24:33;98060.09;;;5.84;70.96
42289;BME280;30230;47.520;19.016;2023-03-15T08:26:34;98041.97;;;5.86;71.06
42289;BME280;30230;47.520;19.016;2023-03-15T08:28:34;98038.91;;;5.96;69.33
42289;BME280;30230;47.520;19.016;2023-03-15T08:30:35;98030.81;;;5.76;69.40
42289;BME280;30230;47.520;19.016;2023-03-15T08:32:36;98053.91;;;5.77;69.53
42289;BME280;30230;47.520;19.016;2023-03-15T08:34:36;98051.44;;;5.82;69.47
42289;BME280;30230;47.520;19.016;2023-03-15T08:36:36;98070.19;;;5.82;68.60
42289;BME280;30230;47.520;19.016;2023-03-15T08:38:37;98064.91;;;5.95;67.88
42289;BME280;30230;47.520;19.016;2023-03-15T08:40:37;98068.53;;;5.88;68.16
42289;BME280;30230;47.520;19.016;2023-03-15T08:42:38;98073.28;;;5.79;67.07
42289;BME280;30230;47.520;19.016;2023-03-15T08:44:38;98084.00;;;5.79;67.87
42289;BME280;30230;47.520;19.016;2023-03-15T08:46:38;98082.56;;;5.83;67.22
42289;BME280;30230;47.520;19.016;2023-03-15T08:48:39;98073.84;;;5.68;68.12
42289;BME280;30230;47.520;19.016;2023-03-15T08:50:40;98082.53;;;5.70;67.49
42289;BME280;30230;47.520;19.016;2023-03-15T08:52:41;98088.94;;;5.75;67.25
42289;BME280;30230;47.520;19.016;2023-03-15T08:54:41;98095.31;;;5.74;66.64
42289;BME280;30230;47.520;19.016;2023-03-15T08:56:42;98109.13;;;5.78;66.00
42289;BME280;30230;47.520;19.016;2023-03-15T08:58:43;98112.38;;;5.67;66.05
42289;BME280;30230;47.520;19.016;2023-03-15T09:00:43;98103.97;;;5.70;65.92
42289;BME280;30230;47.520;19.016;2023-03-15T09:02:44;98117.53;;;5.68;65.90
42289;BME280;30230;47.520;19.016;2023-03-15T09:04:44;98125.16;;;5.65;65.90
42289;BME280;30230;47.520;19.016;2023-03-15T09:06:45;98132.09;;;5.53;65.40
42289;BME280;30230;47.520;19.016;2023-03-15T09:08:45;98134.00;;;5.59;66.32
42289;BME280;30230;47.520;19.016;2023-03-15T09:10:46;98139.19;;;5.67;65.38
42289;BME280;30230;47.520;19.016;2023-03-15T09:12:48;98136.25;;;5.55;65.80
42289;BME280;30230;47.520;19.016;2023-03-15T09:14:50;98143.44;;;5.48;66.22
42289;BME280;30230;47.520;19.016;2023-03-15T09:16:50;98139.53;;;5.57;66.16
42289;BME280;30230;47.520;19.016;2023-03-15T09:18:51;98158.88;;;5.46;67.50
42289;BME280;30230;47.520;19.016;2023-03-15T09:20:52;98164.69;;;5.56;67.22
42289;BME280;30230;47.520;19.016;2023-03-15T09:22:55;98168.41;;;5.55;66.15
42289;BME280;30230;47.520;19.016;2023-03-15T09:24:56;98178.66;;;5.52;66.36
42289;BME280;30230;47.520;19.016;2023-03-15T09:26:57;98177.25;;;5.56;66.56
42289;BME280;30230;47.520;19.016;2023-03-15T09:28:57;98169.59;;;5.53;65.75
42289;BME280;30230;47.520;19.016;2023-03-15T09:30:57;98185.25;;;5.49;66.67
42289;BME280;30230;47.520;19.016;2023-03-15T09:32:58;98171.81;;;5.42;66.04
42289;BME280;30230;47.520;19.016;2023-03-15T09:34:58;98196.00;;;5.56;66.36
42289;BME280;30230;47.520;19.016;2023-03-15T09:36:58;98182.59;;;5.56;66.08
42289;BME280;30230;47.520;19.016;2023-03-15T09:38:59;98200.78;;;5.60;65.90
42289;BME280;30230;47.520;19.016;2023-03-15T09:41:00;98211.75;;;5.72;65.23
42289;BME280;30230;47.520;19.016;2023-03-15T09:43:12;98205.19;;;5.74;64.04
42289;BME280;30230;47.520;19.016;2023-03-15T09:49:43;98212.16;;;5.69;63.44
42289;BME280;30230;47.520;19.016;2023-03-15T09:53:53;98213.75;;;5.63;63.89
42289;BME280;30230;47.520;19.016;2023-03-15T09:55:57;98213.34;;;5.60;62.96
42289;BME280;30230;47.520;19.016;2023-03-15T09:58:03;98204.72;;;5.64;63.91
42289;BME280;30230;47.520;19.016;2023-03-15T10:00:05;98211.94;;;5.64;64.15
42289;BME280;30230;47.520;19.016;2023-03-15T10:02:20;98206.63;;;5.84;62.71
42289;BME280;30230;47.520;19.016;2023-03-15T10:04:29;98203.78;;;5.85;63.14
42289;BME280;30230;47.520;19.016;2023-03-15T10:06:30;98196.50;;;5.72;63.13
42289;BME280;30230;47.520;19.016;2023-03-15T10:08:33;98181.44;;;5.65;63.43
42289;BME280;30230;47.520;19.016;2023-03-15T10:10:36;98214.66;;;5.77;63.31
42289;BME280;30230;47.520;19.016;2023-03-15T10:12:39;98219.22;;;5.83;62.82
42289;BME280;30230;47.520;19.016;2023-03-15T10:16:58;98206.47;;;5.85;62.02
42289;BME280;30230;47.520;19.016;2023-03-15T10:19:10;98222.31;;;5.80;61.58
42289;BME280;30230;47.520;19.016;2023-03-15T10:21:29;98222.94;;;5.82;62.30
42289;BME280;30230;47.520;19.016;2023-03-15T10:23:47;98218.13;;;6.06;60.58
42289;BME280;30230;47.520;19.016;2023-03-15T10:25:50;98226.34;;;6.04;60.98
42289;BME280;30230;47.520;19.016;2023-03-15T10:28:03;98228.47;;;6.15;61.17
42289;BME280;30230;47.520;19.016;2023-03-15T10:30:25;98222.25;;;6.08;60.34
42289;BME280;30230;47.520;19.016;2023-03-15T10:32:30;98234.06;;;6.20;60.35
42289;BME280;30230;47.520;19.016;2023-03-15T10:34:36;98235.84;;;6.07;59.97
42289;BME280;30230;47.520;19.016;2023-03-15T10:36:37;98224.78;;;6.30;59.49
42289;BME280;30230;47.520;19.016;2023-03-15T10:38:44;98242.13;;;6.27;59.30
42289;BME280;30230;47.520;19.016;2023-03-15T10:40:58;98240.88;;;6.23;59.49
42289;BME280;30230;47.520;19.016;2023-03-15T10:42:59;98233.44;;;6.25;59.33
42289;BME280;30230;47.520;19.016;2023-03-15T10:47:19;98241.09;;;6.28;60.41
42289;BME280;30230;47.520;19.016;2023-03-15T10:49:20;98252.47;;;6.37;59.78
42289;BME280;30230;47.520;19.016;2023-03-15T10:51:32;98257.63;;;6.38;58.16
42289;BME280;30230;47.520;19.016;2023-03-15T10:53:57;98254.56;;;6.48;58.73
42289;BME280;30230;47.520;19.016;2023-03-15T10:56:03;98244.88;;;6.47;57.69
42289;BME280;30230;47.520;19.016;2023-03-15T10:58:24;98254.34;;;6.49;58.23
42289;BME280;30230;47.520;19.016;2023-03-15T11:00:34;98253.56;;;6.62;57.87
42289;BME280;30230;47.520;19.016;2023-03-15T11:02:35;98236.00;;;6.46;57.84